La Fayette, Kentucky
Current Conditions -  °F | °C
As of 9:58 PM on Tuesday 21 Oct 2014 (Local Time) from KHOP Reporting Station
Clear Clear  
Wind Chill: 47°   Ceiling: Unl
Heat Index: 50°   Visibility: 10mi
Dew Point: 45°   Wind: 7mph
Humidity: 83%   Direction: 30°NNE
Pressure: 30.15"   Gusts: NA
Location:  36.66°N, 87.66°W
Report Text: KHOP 220258Z AUTO 03006KT 10SM CLR 10/07 A3015 RMK AO2 SLP211 T00990071 52023
Loading
Personal Weather Stations






























Interactive Weather Map
Tropical Storm Tracking
New forecast layout! Learn more

10-Day Weather Forecast

Advertisements
Track Severe Weather on mobile